ETH729 EGCC-LSGG
Flight info
| Callsign | ETH729 |
|---|---|
| Flight time | N/A |
| Altitude | 35000 |
| Route | LISTO P18 TELBA L151 MID UL612 VEULE DCT PEKIM DCT PILUL DCT PIMUP/N0480F270 DCT PIXIS DCT PIBAT/N0450F230 DCT LUSAR |
| Aircraft | A359/H-SDE2E3GHIJ3J4J5LM1ORWXY/LB1D1 |
Departure
| Time | 2026-05-01 14:11 |
|---|---|
| Airport | Manchester Airport (EGCC) |
Arrival
| Time | N/A |
|---|---|
| Airport | Geneva International Airport (LSGG) |
| Time | Latitude | Longitude | Altitude | Speed | Heading |
|---|---|---|---|---|---|
| 2026-05-01 13:17 | 53.36516 | -2.27871 | 239 ft | 0 kts | 45° |
| 2026-05-01 13:18 | 53.36515 | -2.27871 | 239 ft | 0 kts | 45° |
| 2026-05-01 13:18 | 53.36516 | -2.27871 | 239 ft | 0 kts | 45° |
| 2026-05-01 13:57 | 53.36513 | -2.27875 | 239 ft | 3 kts | 46° |
| 2026-05-01 13:57 | 53.36496 | -2.27908 | 239 ft | 4 kts | 55° |
| 2026-05-01 13:57 | 53.36482 | -2.27946 | 239 ft | 4 kts | 68° |
| 2026-05-01 13:57 | 53.36476 | -2.27989 | 239 ft | 4 kts | 94° |
| 2026-05-01 13:58 | 53.36481 | -2.28020 | 239 ft | 0 kts | 132° |
| 2026-05-01 14:02 | 53.36481 | -2.28019 | 239 ft | 2 kts | 132° |
| 2026-05-01 14:03 | 53.36426 | -2.27942 | 239 ft | 13 kts | 155° |
| 2026-05-01 14:03 | 53.36348 | -2.27997 | 239 ft | 14 kts | 224° |
| 2026-05-01 14:03 | 53.36254 | -2.28079 | 239 ft | 17 kts | 194° |
| 2026-05-01 14:03 | 53.36154 | -2.27996 | 239 ft | 17 kts | 136° |
| 2026-05-01 14:04 | 53.36062 | -2.27854 | 239 ft | 19 kts | 153° |
| 2026-05-01 14:04 | 53.35983 | -2.27839 | 239 ft | 8 kts | 185° |
| 2026-05-01 14:04 | 53.35915 | -2.27847 | 239 ft | 11 kts | 180° |
| 2026-05-01 14:04 | 53.35841 | -2.27783 | 239 ft | 14 kts | 132° |
| 2026-05-01 14:05 | 53.35782 | -2.27684 | 239 ft | 10 kts | 145° |
| 2026-05-01 14:05 | 53.35713 | -2.27625 | 239 ft | 12 kts | 154° |
| 2026-05-01 14:05 | 53.35633 | -2.27544 | 239 ft | 15 kts | 142° |
| 2026-05-01 14:05 | 53.35544 | -2.27425 | 240 ft | 18 kts | 141° |
| 2026-05-01 14:06 | 53.35465 | -2.27314 | 246 ft | 14 kts | 140° |
| 2026-05-01 14:06 | 53.35384 | -2.27213 | 240 ft | 13 kts | 154° |
| 2026-05-01 14:06 | 53.35301 | -2.27198 | 239 ft | 11 kts | 191° |
| 2026-05-01 14:06 | 53.35227 | -2.27224 | 239 ft | 7 kts | 191° |
| 2026-05-01 14:07 | 53.35178 | -2.27241 | 239 ft | 8 kts | 191° |
| 2026-05-01 14:07 | 53.35172 | -2.27243 | 239 ft | 0 kts | 191° |
| 2026-05-01 14:08 | 53.35161 | -2.27246 | 239 ft | 6 kts | 191° |
| 2026-05-01 14:08 | 53.35102 | -2.27265 | 239 ft | 11 kts | 191° |
| 2026-05-01 14:09 | 53.35020 | -2.27307 | 239 ft | 14 kts | 213° |
| 2026-05-01 14:09 | 53.34949 | -2.27442 | 239 ft | 15 kts | 230° |
| 2026-05-01 14:09 | 53.34934 | -2.27471 | 239 ft | 0 kts | 230° |
| 2026-05-01 14:10 | 53.34928 | -2.27483 | 239 ft | 13 kts | 230° |
| 2026-05-01 14:10 | 53.34670 | -2.28022 | 238 ft | 102 kts | 231° |
| 2026-05-01 14:10 | 53.34069 | -2.29265 | 256 ft | 170 kts | 232° |
| 2026-05-01 14:10 | 53.33279 | -2.30850 | 833 ft | 190 kts | 231° |
| 2026-05-01 14:11 | 53.32446 | -2.32637 | 1806 ft | 196 kts | 236° |
| 2026-05-01 14:11 | 53.32333 | -2.37395 | 2846 ft | 234 kts | 282° |
| 2026-05-01 14:11 | 53.32299 | -2.40105 | 3414 ft | 238 kts | 245° |
| 2026-05-01 14:12 | 53.31186 | -2.42102 | 3997 ft | 244 kts | 207° |
| 2026-05-01 14:12 | 53.29596 | -2.43303 | 4543 ft | 257 kts | 202° |
| 2026-05-01 14:12 | 53.27901 | -2.44182 | 4909 ft | 253 kts | 189° |
| 2026-05-01 14:12 | 53.26157 | -2.44060 | 4991 ft | 253 kts | 167° |
| 2026-05-01 14:13 | 53.24525 | -2.42930 | 5029 ft | 255 kts | 155° |
| 2026-05-01 14:13 | 53.23488 | -2.41991 | 5178 ft | 256 kts | 153° |
| 2026-05-01 14:13 | 53.21392 | -2.40057 | 6170 ft | 256 kts | 154° |
| 2026-05-01 14:13 | 53.19841 | -2.38644 | 7062 ft | 254 kts | 154° |
| 2026-05-01 14:14 | 53.18280 | -2.37249 | 7829 ft | 256 kts | 154° |
| 2026-05-01 14:14 | 53.16702 | -2.35854 | 8577 ft | 258 kts | 154° |
| 2026-05-01 14:14 | 53.15109 | -2.34452 | 9368 ft | 260 kts | 155° |
| 2026-05-01 14:14 | 53.13498 | -2.33044 | 10147 ft | 263 kts | 155° |
| 2026-05-01 14:15 | 53.11845 | -2.31605 | 10593 ft | 276 kts | 155° |
| 2026-05-01 14:15 | 53.10091 | -2.30083 | 10902 ft | 293 kts | 154° |
| 2026-05-01 14:15 | 53.08230 | -2.28467 | 11194 ft | 309 kts | 154° |
| 2026-05-01 14:15 | 53.06278 | -2.26769 | 11497 ft | 323 kts | 154° |
| 2026-05-01 14:16 | 53.04271 | -2.25020 | 11990 ft | 329 kts | 154° |
| 2026-05-01 14:16 | 53.02210 | -2.23424 | 12539 ft | 333 kts | 161° |
| 2026-05-01 14:16 | 52.99949 | -2.22564 | 13094 ft | 335 kts | 175° |
| 2026-05-01 14:16 | 52.97614 | -2.22435 | 13686 ft | 337 kts | 181° |
| 2026-05-01 14:17 | 52.95274 | -2.22620 | 14211 ft | 340 kts | 184° |
| 2026-05-01 14:17 | 52.92905 | -2.22982 | 14728 ft | 344 kts | 186° |
| 2026-05-01 14:17 | 52.90521 | -2.23418 | 15247 ft | 346 kts | 186° |
| 2026-05-01 14:17 | 52.88084 | -2.23876 | 15762 ft | 349 kts | 186° |
| 2026-05-01 14:18 | 52.85706 | -2.24523 | 16264 ft | 352 kts | 191° |
| 2026-05-01 14:18 | 52.83298 | -2.25354 | 16783 ft | 355 kts | 192° |
| 2026-05-01 14:18 | 52.80879 | -2.26256 | 17282 ft | 358 kts | 193° |
| 2026-05-01 14:18 | 52.79235 | -2.26890 | 17632 ft | 360 kts | 193° |
| 2026-05-01 14:19 | 52.75995 | -2.28157 | 18295 ft | 364 kts | 193° |
| 2026-05-01 14:19 | 52.73523 | -2.29125 | 18734 ft | 366 kts | 193° |
| 2026-05-01 14:19 | 52.71025 | -2.30044 | 19167 ft | 369 kts | 190° |
| 2026-05-01 14:19 | 52.68471 | -2.30423 | 19614 ft | 371 kts | 180° |
| 2026-05-01 14:20 | 52.65954 | -2.29961 | 20039 ft | 374 kts | 168° |
| 2026-05-01 14:20 | 52.61131 | -2.26364 | 20982 ft | 382 kts | 151° |
| 2026-05-01 14:20 | 52.58881 | -2.23994 | 21426 ft | 385 kts | 149° |
| 2026-05-01 14:21 | 52.56662 | -2.21496 | 21853 ft | 388 kts | 148° |
| 2026-05-01 14:21 | 52.54444 | -2.18954 | 22254 ft | 390 kts | 148° |
| 2026-05-01 14:21 | 52.52206 | -2.16406 | 22671 ft | 392 kts | 148° |
| 2026-05-01 14:22 | 52.47679 | -2.11347 | 23548 ft | 395 kts | 148° |
| 2026-05-01 14:22 | 52.45398 | -2.08815 | 23910 ft | 397 kts | 148° |
| 2026-05-01 14:22 | 52.43104 | -2.06272 | 24236 ft | 399 kts | 148° |
| 2026-05-01 14:22 | 52.40792 | -2.03713 | 24572 ft | 402 kts | 148° |
| 2026-05-01 14:23 | 52.38475 | -2.01149 | 24918 ft | 403 kts | 148° |
| 2026-05-01 14:23 | 52.36141 | -1.98569 | 25291 ft | 405 kts | 148° |
| 2026-05-01 14:23 | 52.33761 | -1.95940 | 25601 ft | 409 kts | 148° |
| 2026-05-01 14:23 | 52.31394 | -1.93332 | 25964 ft | 412 kts | 148° |
| 2026-05-01 14:24 | 52.29044 | -1.90744 | 26381 ft | 413 kts | 149° |
| 2026-05-01 14:24 | 52.26654 | -1.88116 | 26792 ft | 415 kts | 148° |
| 2026-05-01 14:24 | 52.24250 | -1.85477 | 27220 ft | 418 kts | 148° |
| 2026-05-01 14:24 | 52.21829 | -1.82822 | 27663 ft | 421 kts | 148° |
| 2026-05-01 14:25 | 52.19394 | -1.80153 | 28111 ft | 423 kts | 148° |
| 2026-05-01 14:25 | 52.16942 | -1.77470 | 28567 ft | 426 kts | 148° |
| 2026-05-01 14:25 | 52.14471 | -1.74770 | 29018 ft | 429 kts | 148° |
| 2026-05-01 14:25 | 52.11950 | -1.72019 | 29488 ft | 432 kts | 148° |
| 2026-05-01 14:26 | 52.09444 | -1.69289 | 29952 ft | 435 kts | 148° |
| 2026-05-01 14:26 | 52.04400 | -1.63803 | 30135 ft | 437 kts | 148° |
| 2026-05-01 14:27 | 51.99340 | -1.58316 | 30131 ft | 438 kts | 148° |
| 2026-05-01 14:27 | 51.94291 | -1.52855 | 30309 ft | 441 kts | 148° |
| 2026-05-01 14:28 | 51.89153 | -1.47317 | 31172 ft | 446 kts | 148° |
| 2026-05-01 14:28 | 51.86561 | -1.44528 | 31575 ft | 449 kts | 148° |
| 2026-05-01 14:28 | 51.83961 | -1.41735 | 31968 ft | 452 kts | 148° |
| 2026-05-01 14:28 | 51.81417 | -1.39005 | 32334 ft | 454 kts | 148° |
| 2026-05-01 14:29 | 51.78775 | -1.36175 | 32695 ft | 457 kts | 148° |
| 2026-05-01 14:29 | 51.76113 | -1.33328 | 33043 ft | 460 kts | 148° |
| 2026-05-01 14:30 | 51.68029 | -1.24702 | 34063 ft | 468 kts | 148° |
| 2026-05-01 14:30 | 51.65308 | -1.21806 | 34467 ft | 468 kts | 148° |
| 2026-05-01 14:30 | 51.62592 | -1.18920 | 34878 ft | 467 kts | 148° |
| 2026-05-01 14:31 | 51.57168 | -1.13169 | 35663 ft | 467 kts | 148° |
| 2026-05-01 14:31 | 51.54448 | -1.10293 | 36043 ft | 468 kts | 148° |
| 2026-05-01 14:31 | 51.51724 | -1.07417 | 36423 ft | 468 kts | 148° |
| 2026-05-01 14:31 | 51.49001 | -1.04545 | 36808 ft | 468 kts | 148° |
| 2026-05-01 14:32 | 51.46277 | -1.01678 | 37192 ft | 468 kts | 148° |
| 2026-05-01 14:32 | 51.44477 | -0.99784 | 37444 ft | 468 kts | 148° |
| 2026-05-01 14:32 | 51.40829 | -0.95953 | 37953 ft | 468 kts | 148° |
| 2026-05-01 14:32 | 51.38104 | -0.93096 | 38343 ft | 468 kts | 148° |
| 2026-05-01 14:33 | 51.35384 | -0.90248 | 38718 ft | 468 kts | 148° |
| 2026-05-01 14:33 | 51.32658 | -0.87398 | 38998 ft | 468 kts | 148° |
| 2026-05-01 14:33 | 51.29929 | -0.84549 | 39299 ft | 467 kts | 148° |
| 2026-05-01 14:33 | 51.27210 | -0.81715 | 39553 ft | 467 kts | 148° |
| 2026-05-01 14:34 | 51.24485 | -0.78879 | 39792 ft | 468 kts | 148° |
| 2026-05-01 14:34 | 51.21789 | -0.76077 | 40007 ft | 469 kts | 148° |
| 2026-05-01 14:34 | 51.19055 | -0.73239 | 40246 ft | 469 kts | 148° |
| 2026-05-01 14:34 | 51.16311 | -0.70397 | 40439 ft | 471 kts | 148° |
| 2026-05-01 14:35 | 51.13558 | -0.67548 | 40651 ft | 472 kts | 148° |
| 2026-05-01 14:35 | 51.10810 | -0.64707 | 40899 ft | 472 kts | 149° |
| 2026-05-01 14:35 | 51.08059 | -0.61867 | 41120 ft | 472 kts | 148° |
| 2026-05-01 14:36 | 51.02550 | -0.56197 | 41196 ft | 478 kts | 148° |
| 2026-05-01 14:36 | 50.96926 | -0.50422 | 41201 ft | 485 kts | 148° |
| 2026-05-01 14:37 | 50.91238 | -0.44596 | 41209 ft | 486 kts | 149° |
| 2026-05-01 14:37 | 50.85551 | -0.38793 | 41211 ft | 487 kts | 149° |
| 2026-05-01 14:38 | 50.80778 | -0.33935 | 41209 ft | 487 kts | 149° |
| 2026-05-01 14:38 | 50.75067 | -0.28138 | 41210 ft | 488 kts | 148° |
| 2026-05-01 14:39 | 50.69391 | -0.22392 | 41210 ft | 488 kts | 148° |
| 2026-05-01 14:39 | 50.63663 | -0.16610 | 41210 ft | 489 kts | 148° |
| 2026-05-01 14:40 | 50.57929 | -0.10840 | 41208 ft | 490 kts | 148° |
| 2026-05-01 14:40 | 50.52183 | -0.05074 | 41209 ft | 490 kts | 149° |
| 2026-05-01 14:41 | 50.46434 | 0.00677 | 41201 ft | 490 kts | 148° |
| 2026-05-01 14:41 | 50.40678 | 0.06418 | 41207 ft | 491 kts | 148° |
| 2026-05-01 14:42 | 50.34912 | 0.12153 | 41208 ft | 491 kts | 149° |
| 2026-05-01 14:42 | 50.29134 | 0.17884 | 41209 ft | 492 kts | 149° |
| 2026-05-01 14:43 | 50.23355 | 0.23598 | 41211 ft | 492 kts | 149° |
| 2026-05-01 14:43 | 50.17583 | 0.29325 | 41208 ft | 492 kts | 148° |
| 2026-05-01 14:44 | 50.11869 | 0.35205 | 41210 ft | 492 kts | 147° |
| 2026-05-01 14:44 | 50.03306 | 0.44046 | 41209 ft | 492 kts | 148° |
| 2026-05-01 14:45 | 49.94718 | 0.52814 | 41208 ft | 493 kts | 148° |
| 2026-05-01 14:46 | 49.88973 | 0.58646 | 41208 ft | 494 kts | 148° |
| 2026-05-01 14:46 | 49.80983 | 0.68730 | 41206 ft | 495 kts | 138° |
| 2026-05-01 14:47 | 49.75958 | 0.76026 | 41204 ft | 496 kts | 137° |
| 2026-05-01 14:48 | 49.68476 | 0.86954 | 41201 ft | 495 kts | 138° |
| 2026-05-01 14:48 | 49.60932 | 0.97850 | 41197 ft | 495 kts | 138° |
| 2026-05-01 14:49 | 49.50870 | 1.12281 | 41184 ft | 495 kts | 139° |
| 2026-05-01 14:50 | 49.40758 | 1.26701 | 41181 ft | 496 kts | 138° |
| 2026-05-01 14:51 | 49.33153 | 1.37491 | 41177 ft | 496 kts | 138° |
| 2026-05-01 14:52 | 49.25544 | 1.48239 | 41198 ft | 496 kts | 139° |
| 2026-05-01 14:53 | 49.17916 | 1.58966 | 41202 ft | 496 kts | 139° |
| 2026-05-01 14:53 | 49.12828 | 1.66096 | 41204 ft | 496 kts | 139° |
| 2026-05-01 14:54 | 49.07736 | 1.73210 | 41207 ft | 496 kts | 139° |
| 2026-05-01 14:54 | 49.02636 | 1.80316 | 41208 ft | 497 kts | 139° |
| 2026-05-01 14:55 | 48.97532 | 1.87406 | 41209 ft | 497 kts | 139° |
| 2026-05-01 14:55 | 48.92417 | 1.94490 | 41193 ft | 497 kts | 139° |
| 2026-05-01 14:56 | 48.87331 | 2.01514 | 41209 ft | 497 kts | 139° |
| 2026-05-01 14:56 | 48.82213 | 2.08562 | 41210 ft | 497 kts | 139° |
| 2026-05-01 14:57 | 48.77085 | 2.15604 | 41213 ft | 497 kts | 139° |
| 2026-05-01 14:57 | 48.69391 | 2.26130 | 41210 ft | 497 kts | 139° |
| 2026-05-01 14:58 | 48.64258 | 2.33127 | 41184 ft | 497 kts | 139° |
| 2026-05-01 14:58 | 48.59125 | 2.40105 | 41187 ft | 497 kts | 139° |
| 2026-05-01 14:59 | 48.53978 | 2.47082 | 41188 ft | 497 kts | 139° |
| 2026-05-01 14:59 | 48.48824 | 2.54049 | 41208 ft | 497 kts | 140° |
| 2026-05-01 15:00 | 48.41087 | 2.64469 | 41213 ft | 497 kts | 139° |
| 2026-05-01 15:01 | 48.35924 | 2.71399 | 41213 ft | 498 kts | 140° |
| 2026-05-01 15:01 | 48.30756 | 2.78315 | 41209 ft | 498 kts | 140° |
| 2026-05-01 15:02 | 48.25551 | 2.85195 | 41214 ft | 498 kts | 142° |
| 2026-05-01 15:02 | 48.20089 | 2.91563 | 41216 ft | 497 kts | 144° |
| 2026-05-01 15:03 | 48.14544 | 2.97760 | 41217 ft | 498 kts | 144° |
| 2026-05-01 15:03 | 48.08936 | 3.03827 | 41215 ft | 497 kts | 150° |
| 2026-05-01 15:04 | 48.02760 | 3.08389 | 41219 ft | 495 kts | 157° |
| 2026-05-01 15:04 | 47.96430 | 3.12414 | 41216 ft | 495 kts | 159° |
| 2026-05-01 15:05 | 47.90069 | 3.16347 | 41215 ft | 495 kts | 159° |
| 2026-05-01 15:05 | 47.83704 | 3.20296 | 41217 ft | 496 kts | 159° |
| 2026-05-01 15:06 | 47.77383 | 3.24237 | 41221 ft | 496 kts | 159° |
| 2026-05-01 15:06 | 47.71022 | 3.28205 | 41218 ft | 497 kts | 159° |
| 2026-05-01 15:07 | 47.64641 | 3.32172 | 41220 ft | 497 kts | 159° |
| 2026-05-01 15:07 | 47.58261 | 3.36128 | 41219 ft | 497 kts | 159° |
| 2026-05-01 15:08 | 47.51882 | 3.40073 | 41218 ft | 497 kts | 159° |
| 2026-05-01 15:08 | 47.45493 | 3.44015 | 41221 ft | 498 kts | 159° |
| 2026-05-01 15:09 | 47.39097 | 3.47949 | 41215 ft | 498 kts | 159° |
| 2026-05-01 15:09 | 47.32695 | 3.51878 | 41211 ft | 498 kts | 159° |
| 2026-05-01 15:10 | 47.26283 | 3.55802 | 41112 ft | 499 kts | 159° |
| 2026-05-01 15:10 | 47.19873 | 3.59715 | 40655 ft | 499 kts | 160° |
| 2026-05-01 15:10 | 47.16663 | 3.61671 | 40412 ft | 499 kts | 160° |
| 2026-05-01 15:11 | 47.13454 | 3.63623 | 40176 ft | 499 kts | 160° |
| 2026-05-01 15:11 | 47.07041 | 3.67517 | 39695 ft | 499 kts | 160° |
| 2026-05-01 15:11 | 47.03827 | 3.69465 | 39457 ft | 499 kts | 160° |
| 2026-05-01 15:12 | 47.00666 | 3.71588 | 39249 ft | 501 kts | 155° |
| 2026-05-01 15:12 | 46.95056 | 3.77698 | 38752 ft | 509 kts | 136° |
| 2026-05-01 15:12 | 46.92816 | 3.81702 | 38180 ft | 508 kts | 127° |
| 2026-05-01 15:13 | 46.88364 | 3.95956 | 34749 ft | 524 kts | 112° |
| 2026-05-01 15:14 | 46.85823 | 4.06013 | 32296 ft | 529 kts | 112° |
| 2026-05-01 15:14 | 46.84537 | 4.11038 | 31130 ft | 527 kts | 113° |
| 2026-05-01 15:14 | 46.81948 | 4.20905 | 29630 ft | 512 kts | 114° |
| 2026-05-01 15:15 | 46.79948 | 4.30748 | 28150 ft | 501 kts | 105° |
| 2026-05-01 15:15 | 46.78486 | 4.40541 | 26803 ft | 487 kts | 105° |
| 2026-05-01 15:16 | 46.77085 | 4.50058 | 25545 ft | 472 kts | 105° |
| 2026-05-01 15:16 | 46.75731 | 4.59243 | 24335 ft | 458 kts | 105° |
| 2026-05-01 15:17 | 46.74401 | 4.68216 | 22884 ft | 447 kts | 105° |
| 2026-05-01 15:18 | 46.72454 | 4.81256 | 20672 ft | 431 kts | 106° |
| 2026-05-01 15:18 | 46.71816 | 4.85507 | 20289 ft | 430 kts | 106° |
| 2026-05-01 15:19 | 46.69893 | 4.98239 | 20210 ft | 428 kts | 105° |
| 2026-05-01 15:19 | 46.68608 | 5.06695 | 20217 ft | 428 kts | 105° |
| 2026-05-01 15:19 | 46.67964 | 5.10923 | 20204 ft | 428 kts | 105° |
| 2026-05-01 15:20 | 46.66672 | 5.19370 | 20174 ft | 427 kts | 105° |
| 2026-05-01 15:20 | 46.66036 | 5.23591 | 19937 ft | 426 kts | 105° |
| 2026-05-01 15:20 | 46.65402 | 5.27803 | 19689 ft | 425 kts | 105° |
| 2026-05-01 15:21 | 46.64767 | 5.32001 | 19461 ft | 425 kts | 105° |
| 2026-05-01 15:21 | 46.64131 | 5.36197 | 19216 ft | 424 kts | 105° |
| 2026-05-01 15:21 | 46.63497 | 5.40374 | 18978 ft | 422 kts | 105° |
| 2026-05-01 15:21 | 46.62863 | 5.44542 | 18746 ft | 421 kts | 105° |
| 2026-05-01 15:22 | 46.61594 | 5.52824 | 18245 ft | 418 kts | 105° |
| 2026-05-01 15:22 | 46.60950 | 5.56938 | 17975 ft | 417 kts | 105° |
| 2026-05-01 15:22 | 46.60307 | 5.61041 | 17721 ft | 415 kts | 105° |
| 2026-05-01 15:23 | 46.59666 | 5.65122 | 17461 ft | 414 kts | 105° |
| 2026-05-01 15:23 | 46.59025 | 5.69195 | 17198 ft | 412 kts | 104° |
| 2026-05-01 15:23 | 46.58385 | 5.73254 | 16940 ft | 412 kts | 104° |
| 2026-05-01 15:23 | 46.57685 | 5.77280 | 16684 ft | 409 kts | 109° |
| 2026-05-01 15:24 | 46.56474 | 5.80980 | 16361 ft | 402 kts | 125° |
| 2026-05-01 15:24 | 46.54626 | 5.83922 | 15820 ft | 390 kts | 141° |
| 2026-05-01 15:24 | 46.52496 | 5.86204 | 15212 ft | 383 kts | 146° |
| 2026-05-01 15:24 | 46.50317 | 5.88361 | 14650 ft | 375 kts | 147° |
| 2026-05-01 15:25 | 46.48210 | 5.90445 | 14504 ft | 357 kts | 147° |
| 2026-05-01 15:25 | 46.46211 | 5.92426 | 14377 ft | 340 kts | 147° |
| 2026-05-01 15:25 | 46.44309 | 5.94315 | 14270 ft | 323 kts | 147° |
| 2026-05-01 15:25 | 46.42497 | 5.96119 | 14129 ft | 309 kts | 147° |
| 2026-05-01 15:26 | 46.41342 | 5.97271 | 14045 ft | 299 kts | 147° |
| 2026-05-01 15:26 | 46.39667 | 5.98942 | 13906 ft | 286 kts | 147° |
| 2026-05-01 15:26 | 46.38061 | 6.00546 | 13763 ft | 276 kts | 147° |
| 2026-05-01 15:26 | 46.36435 | 6.01985 | 13618 ft | 273 kts | 156° |
| 2026-05-01 15:27 | 46.34618 | 6.02698 | 13306 ft | 272 kts | 176° |
| 2026-05-01 15:27 | 46.32737 | 6.02389 | 12777 ft | 277 kts | 197° |
| 2026-05-01 15:27 | 46.31040 | 6.00998 | 12078 ft | 287 kts | 219° |
| 2026-05-01 15:28 | 46.28206 | 5.96899 | 11143 ft | 288 kts | 225° |
| 2026-05-01 15:28 | 46.26841 | 5.94848 | 10739 ft | 287 kts | 224° |
| 2026-05-01 15:28 | 46.25451 | 5.92784 | 10325 ft | 286 kts | 224° |
| 2026-05-01 15:29 | 46.22680 | 5.88712 | 9387 ft | 283 kts | 224° |
| 2026-05-01 15:29 | 46.21304 | 5.86703 | 8939 ft | 281 kts | 224° |
| 2026-05-01 15:29 | 46.18566 | 5.82726 | 8068 ft | 277 kts | 224° |
| 2026-05-01 15:30 | 46.15883 | 5.78835 | 7210 ft | 274 kts | 224° |
| 2026-05-01 15:31 | 46.10488 | 5.71641 | 6029 ft | 263 kts | 206° |
| 2026-05-01 15:31 | 46.07093 | 5.71379 | 5977 ft | 240 kts | 156° |
| 2026-05-01 15:32 | 46.04807 | 5.74616 | 5982 ft | 226 kts | 128° |
| 2026-05-01 15:32 | 46.03212 | 5.78629 | 5984 ft | 241 kts | 100° |
| 2026-05-01 15:33 | 46.05638 | 5.84595 | 5981 ft | 232 kts | 44° |
| 2026-05-01 15:34 | 46.08985 | 5.89199 | 5282 ft | 220 kts | 46° |